Hlavní strana
METAR-TAF:

METAR-TAF

Letiště :

Rønne, Dánsko

zeměpisná šířka: 55-04N, zeměpisná délka: 014-45E, výška: 16 m

Aktuální stav počasí

Zpráva byla vytvořena před 27 minutami, v 22:50 UTC
Jihojihovýchodní vítr 11 kt
Teplota 9°C
Vlhkost vzduchu 81%
Tlak 1035 hPa
Viditelnost 10 km a více

METAR: EKRN 152250Z AUTO 15011KT 9999NDV NCD 09/06 Q1035

Čas: 00:17 (23:17 UTC)

Předpověď počasí

Zpráva byla vytvořena před 5 hodinami a 55 minutami, v 17:22 UTC
Předpověď platná od 15 v 18 UTC do 15 v 23 UTC
Jihovýchodní vítr 8 kt
Viditelnost: 6000 m
Oblačno až skoro zataženo ve výšce 300 ft
Dočasný
od 15 v 18 UTC do 15 v 23 UTC
Viditelnost: 2000 m
Oblačno až skoro zataženo ve výšce 1500 ft
kouřmo

TAF: EKRN 151722Z 1518/1523 13008KT 6000 BKN003 TEMPO 1518/1523 2000 BR BKN015

Stav a předpovědi počasí z více než 4 000 letišť (zprávy METAR a TAF).

Červené a žluté tečky na mapě představují dostupné meteorologické stanice.

Když kurzor umístíte na tečku, zobrazí se název stanice.

Pak kliknutím zobrazíte stav a předpověď počasí.

Chcete-li změnit mapu, kliknutím na zelené tlačítko se znaménkem +mapu přiblížíte, kliknutím na zelené tlačítko se znaménkem – mapu oddálíte a kliknutím na zelené šipky přejdete na sousední mapy.


METAR-TAF: